sensor_id;sensor_type;location;lat;lon;timestamp;temperature;humidity
8715;DHT22;4394;51.208;8.904;2022-08-30T00:00:40;17.10;99.90
8715;DHT22;4394;51.208;8.904;2022-08-30T00:03:46;17.10;99.90
8715;DHT22;4394;51.208;8.904;2022-08-30T00:06:34;17.10;99.90
8715;DHT22;4394;51.208;8.904;2022-08-30T00:09:23;17.10;99.90
8715;DHT22;4394;51.208;8.904;2022-08-30T00:12:11;17.10;99.90
8715;DHT22;4394;51.208;8.904;2022-08-30T00:14:59;17.00;99.90
8715;DHT22;4394;51.208;8.904;2022-08-30T00:17:47;17.00;99.90
8715;DHT22;4394;51.208;8.904;2022-08-30T00:20:36;17.00;99.90
8715;DHT22;4394;51.208;8.904;2022-08-30T00:23:24;17.00;99.90
8715;DHT22;4394;51.208;8.904;2022-08-30T00:26:13;16.90;99.90
8715;DHT22;4394;51.208;8.904;2022-08-30T00:29:01;16.90;99.90
8715;DHT22;4394;51.208;8.904;2022-08-30T00:31:49;16.90;99.90
8715;DHT22;4394;51.208;8.904;2022-08-30T00:34:37;17.00;99.90
8715;DHT22;4394;51.208;8.904;2022-08-30T00:37:25;16.90;99.90
8715;DHT22;4394;51.208;8.904;2022-08-30T00:40:13;16.80;99.90
8715;DHT22;4394;51.208;8.904;2022-08-30T00:43:04;16.80;99.90
8715;DHT22;4394;51.208;8.904;2022-08-30T00:45:59;16.80;99.90
8715;DHT22;4394;51.208;8.904;2022-08-30T00:48:49;16.70;99.90
8715;DHT22;4394;51.208;8.904;2022-08-30T00:51:38;16.70;99.90
8715;DHT22;4394;51.208;8.904;2022-08-30T00:54:26;16.60;99.90
8715;DHT22;4394;51.208;8.904;2022-08-30T00:57:14;16.70;99.90
8715;DHT22;4394;51.208;8.904;2022-08-30T01:00:04;16.70;99.90
8715;DHT22;4394;51.208;8.904;2022-08-30T01:02:53;16.70;99.90
8715;DHT22;4394;51.208;8.904;2022-08-30T01:05:41;16.70;99.90
8715;DHT22;4394;51.208;8.904;2022-08-30T01:08:29;16.80;99.90
8715;DHT22;4394;51.208;8.904;2022-08-30T01:11:18;16.80;99.90
8715;DHT22;4394;51.208;8.904;2022-08-30T01:14:07;16.80;99.90
8715;DHT22;4394;51.208;8.904;2022-08-30T01:16:57;16.90;99.90
8715;DHT22;4394;51.208;8.904;2022-08-30T01:19:47;16.80;99.90
8715;DHT22;4394;51.208;8.904;2022-08-30T01:22:39;16.70;99.90
8715;DHT22;4394;51.208;8.904;2022-08-30T01:25:31;16.70;99.90
8715;DHT22;4394;51.208;8.904;2022-08-30T01:28:22;16.60;99.90
8715;DHT22;4394;51.208;8.904;2022-08-30T01:31:11;16.60;99.90
8715;DHT22;4394;51.208;8.904;2022-08-30T01:33:59;16.50;99.90
8715;DHT22;4394;51.208;8.904;2022-08-30T01:36:47;16.50;99.90
8715;DHT22;4394;51.208;8.904;2022-08-30T01:39:36;16.40;99.90
8715;DHT22;4394;51.208;8.904;2022-08-30T01:42:26;16.40;99.90
8715;DHT22;4394;51.208;8.904;2022-08-30T01:45:14;16.30;99.90
8715;DHT22;4394;51.208;8.904;2022-08-30T01:48:02;16.30;99.90
8715;DHT22;4394;51.208;8.904;2022-08-30T01:50:52;16.20;99.90
8715;DHT22;4394;51.208;8.904;2022-08-30T01:53:41;16.10;99.90
8715;DHT22;4394;51.208;8.904;2022-08-30T01:56:29;16.00;99.90
8715;DHT22;4394;51.208;8.904;2022-08-30T01:59:18;16.00;99.90
8715;DHT22;4394;51.208;8.904;2022-08-30T02:02:06;16.00;99.90
8715;DHT22;4394;51.208;8.904;2022-08-30T02:04:54;15.90;99.90
8715;DHT22;4394;51.208;8.904;2022-08-30T02:07:44;15.90;99.90
8715;DHT22;4394;51.208;8.904;2022-08-30T02:10:32;15.90;99.90
8715;DHT22;4394;51.208;8.904;2022-08-30T02:13:20;15.90;99.90
8715;DHT22;4394;51.208;8.904;2022-08-30T02:16:11;15.90;99.90
8715;DHT22;4394;51.208;8.904;2022-08-30T02:19:00;15.80;99.90
8715;DHT22;4394;51.208;8.904;2022-08-30T02:21:48;15.80;99.90
8715;DHT22;4394;51.208;8.904;2022-08-30T02:24:36;15.80;99.90
8715;DHT22;4394;51.208;8.904;2022-08-30T02:27:24;15.80;99.90
8715;DHT22;4394;51.208;8.904;2022-08-30T02:30:12;15.60;99.90
8715;DHT22;4394;51.208;8.904;2022-08-30T02:33:02;15.70;99.90
8715;DHT22;4394;51.208;8.904;2022-08-30T02:35:50;15.60;99.90
8715;DHT22;4394;51.208;8.904;2022-08-30T02:38:37;15.60;99.90
8715;DHT22;4394;51.208;8.904;2022-08-30T02:41:25;15.60;99.90
8715;DHT22;4394;51.208;8.904;2022-08-30T02:44:13;15.60;99.90
8715;DHT22;4394;51.208;8.904;2022-08-30T02:47:01;15.60;99.90
8715;DHT22;4394;51.208;8.904;2022-08-30T02:49:50;15.60;99.90
8715;DHT22;4394;51.208;8.904;2022-08-30T02:52:38;15.60;99.90
8715;DHT22;4394;51.208;8.904;2022-08-30T02:55:26;15.70;99.90
8715;DHT22;4394;51.208;8.904;2022-08-30T02:58:14;15.70;99.90
8715;DHT22;4394;51.208;8.904;2022-08-30T03:01:02;15.70;99.90
8715;DHT22;4394;51.208;8.904;2022-08-30T03:03:51;15.70;99.90
8715;DHT22;4394;51.208;8.904;2022-08-30T03:06:40;15.70;99.90
8715;DHT22;4394;51.208;8.904;2022-08-30T03:09:29;15.60;99.90
8715;DHT22;4394;51.208;8.904;2022-08-30T03:12:17;15.70;99.90
8715;DHT22;4394;51.208;8.904;2022-08-30T03:15:06;15.70;99.90
8715;DHT22;4394;51.208;8.904;2022-08-30T03:17:54;15.60;99.90
8715;DHT22;4394;51.208;8.904;2022-08-30T03:20:42;15.50;99.90
8715;DHT22;4394;51.208;8.904;2022-08-30T03:23:41;15.40;99.90
8715;DHT22;4394;51.208;8.904;2022-08-30T03:26:29;15.30;99.90
8715;DHT22;4394;51.208;8.904;2022-08-30T03:29:17;15.30;99.90
8715;DHT22;4394;51.208;8.904;2022-08-30T03:32:05;15.40;99.90
8715;DHT22;4394;51.208;8.904;2022-08-30T03:34:53;15.50;99.90
8715;DHT22;4394;51.208;8.904;2022-08-30T03:37:41;15.50;99.90
8715;DHT22;4394;51.208;8.904;2022-08-30T03:40:30;15.50;99.90
8715;DHT22;4394;51.208;8.904;2022-08-30T03:43:19;15.50;99.90
8715;DHT22;4394;51.208;8.904;2022-08-30T03:46:09;15.40;99.90
8715;DHT22;4394;51.208;8.904;2022-08-30T03:48:57;15.40;99.90
8715;DHT22;4394;51.208;8.904;2022-08-30T03:51:45;15.40;99.90
8715;DHT22;4394;51.208;8.904;2022-08-30T03:54:34;15.40;99.90
8715;DHT22;4394;51.208;8.904;2022-08-30T03:57:24;15.40;99.90
8715;DHT22;4394;51.208;8.904;2022-08-30T04:00:13;15.40;99.90
8715;DHT22;4394;51.208;8.904;2022-08-30T04:03:02;15.40;99.90
8715;DHT22;4394;51.208;8.904;2022-08-30T04:05:50;15.30;99.90
8715;DHT22;4394;51.208;8.904;2022-08-30T04:08:38;15.20;99.90
8715;DHT22;4394;51.208;8.904;2022-08-30T04:11:26;15.20;99.90
8715;DHT22;4394;51.208;8.904;2022-08-30T04:14:15;15.10;99.90
8715;DHT22;4394;51.208;8.904;2022-08-30T04:17:03;15.10;99.90
8715;DHT22;4394;51.208;8.904;2022-08-30T04:19:51;15.00;99.90
8715;DHT22;4394;51.208;8.904;2022-08-30T04:22:39;15.10;99.90
8715;DHT22;4394;51.208;8.904;2022-08-30T04:25:27;15.10;99.90
8715;DHT22;4394;51.208;8.904;2022-08-30T04:28:15;15.10;99.90
8715;DHT22;4394;51.208;8.904;2022-08-30T04:31:07;15.20;99.90
8715;DHT22;4394;51.208;8.904;2022-08-30T04:33:57;15.20;99.90
8715;DHT22;4394;51.208;8.904;2022-08-30T04:36:46;15.10;99.90
8715;DHT22;4394;51.208;8.904;2022-08-30T04:39:35;15.20;99.90
8715;DHT22;4394;51.208;8.904;2022-08-30T04:42:23;15.20;99.90
8715;DHT22;4394;51.208;8.904;2022-08-30T04:45:12;15.00;99.90
8715;DHT22;4394;51.208;8.904;2022-08-30T04:48:02;15.00;99.90
8715;DHT22;4394;51.208;8.904;2022-08-30T04:50:50;14.90;99.90
8715;DHT22;4394;51.208;8.904;2022-08-30T04:53:38;14.80;99.90
8715;DHT22;4394;51.208;8.904;2022-08-30T04:56:26;14.80;99.90
8715;DHT22;4394;51.208;8.904;2022-08-30T04:59:14;14.70;99.90
8715;DHT22;4394;51.208;8.904;2022-08-30T05:02:02;14.70;99.90
8715;DHT22;4394;51.208;8.904;2022-08-30T05:04:52;14.60;99.90
8715;DHT22;4394;51.208;8.904;2022-08-30T05:07:59;14.60;99.90
8715;DHT22;4394;51.208;8.904;2022-08-30T05:10:49;14.70;99.90
8715;DHT22;4394;51.208;8.904;2022-08-30T05:13:37;14.70;99.90
8715;DHT22;4394;51.208;8.904;2022-08-30T05:16:25;14.70;99.90
8715;DHT22;4394;51.208;8.904;2022-08-30T05:19:12;14.70;99.90
8715;DHT22;4394;51.208;8.904;2022-08-30T05:22:02;14.80;99.90
8715;DHT22;4394;51.208;8.904;2022-08-30T05:24:50;14.80;99.90
8715;DHT22;4394;51.208;8.904;2022-08-30T05:27:38;14.80;99.90
8715;DHT22;4394;51.208;8.904;2022-08-30T05:30:26;14.80;99.90
8715;DHT22;4394;51.208;8.904;2022-08-30T05:33:14;14.90;99.90
8715;DHT22;4394;51.208;8.904;2022-08-30T05:36:04;14.90;99.90
8715;DHT22;4394;51.208;8.904;2022-08-30T05:38:54;14.90;99.90
8715;DHT22;4394;51.208;8.904;2022-08-30T05:41:42;15.00;99.90
8715;DHT22;4394;51.208;8.904;2022-08-30T05:44:30;15.00;99.90
8715;DHT22;4394;51.208;8.904;2022-08-30T05:47:17;15.00;99.90
8715;DHT22;4394;51.208;8.904;2022-08-30T05:50:06;15.10;99.90
8715;DHT22;4394;51.208;8.904;2022-08-30T05:52:54;15.10;99.90
8715;DHT22;4394;51.208;8.904;2022-08-30T05:55:43;15.20;99.90
8715;DHT22;4394;51.208;8.904;2022-08-30T05:58:31;15.30;99.90
8715;DHT22;4394;51.208;8.904;2022-08-30T06:01:20;15.40;99.90
8715;DHT22;4394;51.208;8.904;2022-08-30T06:04:09;15.40;99.90
8715;DHT22;4394;51.208;8.904;2022-08-30T06:06:58;15.40;99.90
8715;DHT22;4394;51.208;8.904;2022-08-30T06:09:46;15.40;99.90
8715;DHT22;4394;51.208;8.904;2022-08-30T06:12:35;15.40;99.90
8715;DHT22;4394;51.208;8.904;2022-08-30T06:15:23;15.40;99.90
8715;DHT22;4394;51.208;8.904;2022-08-30T06:18:12;15.40;99.90
8715;DHT22;4394;51.208;8.904;2022-08-30T06:21:00;15.50;99.90
8715;DHT22;4394;51.208;8.904;2022-08-30T06:23:48;15.50;99.90
8715;DHT22;4394;51.208;8.904;2022-08-30T06:26:37;15.60;99.90
8715;DHT22;4394;51.208;8.904;2022-08-30T06:29:27;15.70;99.90
8715;DHT22;4394;51.208;8.904;2022-08-30T06:32:15;15.70;99.90
8715;DHT22;4394;51.208;8.904;2022-08-30T06:35:04;15.80;99.90
8715;DHT22;4394;51.208;8.904;2022-08-30T06:37:52;15.80;99.90
8715;DHT22;4394;51.208;8.904;2022-08-30T06:40:40;15.90;99.90
8715;DHT22;4394;51.208;8.904;2022-08-30T06:43:28;16.00;99.90
8715;DHT22;4394;51.208;8.904;2022-08-30T06:46:19;16.10;99.90
8715;DHT22;4394;51.208;8.904;2022-08-30T06:49:08;16.20;99.90
8715;DHT22;4394;51.208;8.904;2022-08-30T06:51:56;16.30;99.90
8715;DHT22;4394;51.208;8.904;2022-08-30T06:54:43;16.40;99.90
8715;DHT22;4394;51.208;8.904;2022-08-30T06:57:31;16.50;99.90
8715;DHT22;4394;51.208;8.904;2022-08-30T07:00:19;16.60;99.90
8715;DHT22;4394;51.208;8.904;2022-08-30T07:03:08;16.70;99.90
8715;DHT22;4394;51.208;8.904;2022-08-30T07:05:56;16.80;99.90
8715;DHT22;4394;51.208;8.904;2022-08-30T07:08:44;16.90;99.90
8715;DHT22;4394;51.208;8.904;2022-08-30T07:11:34;17.00;99.90
8715;DHT22;4394;51.208;8.904;2022-08-30T07:14:22;17.00;99.90
8715;DHT22;4394;51.208;8.904;2022-08-30T07:17:10;17.10;99.90
8715;DHT22;4394;51.208;8.904;2022-08-30T07:20:21;17.30;99.90
8715;DHT22;4394;51.208;8.904;2022-08-30T07:23:09;17.30;99.90
8715;DHT22;4394;51.208;8.904;2022-08-30T07:25:57;17.30;99.90
8715;DHT22;4394;51.208;8.904;2022-08-30T07:28:45;17.30;99.90
8715;DHT22;4394;51.208;8.904;2022-08-30T07:31:37;17.40;99.90
8715;DHT22;4394;51.208;8.904;2022-08-30T07:34:25;17.50;99.90
8715;DHT22;4394;51.208;8.904;2022-08-30T07:37:15;17.60;99.90
8715;DHT22;4394;51.208;8.904;2022-08-30T07:40:04;17.70;99.90
8715;DHT22;4394;51.208;8.904;2022-08-30T07:42:52;17.80;99.90
8715;DHT22;4394;51.208;8.904;2022-08-30T07:45:40;18.00;99.90
8715;DHT22;4394;51.208;8.904;2022-08-30T07:48:28;18.10;99.90
8715;DHT22;4394;51.208;8.904;2022-08-30T07:51:17;18.30;99.90
8715;DHT22;4394;51.208;8.904;2022-08-30T07:54:07;18.30;99.90
8715;DHT22;4394;51.208;8.904;2022-08-30T07:56:54;18.40;99.90
8715;DHT22;4394;51.208;8.904;2022-08-30T07:59:42;18.50;99.90
8715;DHT22;4394;51.208;8.904;2022-08-30T08:02:30;18.60;99.90
8715;DHT22;4394;51.208;8.904;2022-08-30T08:05:19;18.60;99.90
8715;DHT22;4394;51.208;8.904;2022-08-30T08:08:11;18.80;99.90
8715;DHT22;4394;51.208;8.904;2022-08-30T08:11:05;18.80;99.90
8715;DHT22;4394;51.208;8.904;2022-08-30T08:13:54;18.90;99.90
8715;DHT22;4394;51.208;8.904;2022-08-30T08:16:42;19.00;99.90
8715;DHT22;4394;51.208;8.904;2022-08-30T08:19:30;19.00;99.90
8715;DHT22;4394;51.208;8.904;2022-08-30T08:22:18;19.10;99.90
8715;DHT22;4394;51.208;8.904;2022-08-30T08:25:07;19.10;99.90
8715;DHT22;4394;51.208;8.904;2022-08-30T08:27:56;19.20;99.90
8715;DHT22;4394;51.208;8.904;2022-08-30T08:30:45;19.30;99.90
8715;DHT22;4394;51.208;8.904;2022-08-30T08:33:34;19.30;99.90
8715;DHT22;4394;51.208;8.904;2022-08-30T08:36:22;19.50;99.90
8715;DHT22;4394;51.208;8.904;2022-08-30T08:39:10;19.60;99.90
8715;DHT22;4394;51.208;8.904;2022-08-30T08:41:59;19.70;99.90
8715;DHT22;4394;51.208;8.904;2022-08-30T08:44:54;19.90;99.90
8715;DHT22;4394;51.208;8.904;2022-08-30T08:47:46;20.00;99.90
8715;DHT22;4394;51.208;8.904;2022-08-30T08:50:37;20.10;99.90
8715;DHT22;4394;51.208;8.904;2022-08-30T08:53:49;20.20;99.90
8715;DHT22;4394;51.208;8.904;2022-08-30T08:56:37;20.40;99.90
8715;DHT22;4394;51.208;8.904;2022-08-30T08:59:25;20.50;99.90
8715;DHT22;4394;51.208;8.904;2022-08-30T09:02:18;20.60;99.90
8715;DHT22;4394;51.208;8.904;2022-08-30T09:05:10;20.70;99.90
8715;DHT22;4394;51.208;8.904;2022-08-30T09:07:59;20.80;99.90
8715;DHT22;4394;51.208;8.904;2022-08-30T09:10:56;20.90;99.90
8715;DHT22;4394;51.208;8.904;2022-08-30T09:13:45;21.00;99.90
8715;DHT22;4394;51.208;8.904;2022-08-30T09:16:47;21.20;99.90
8715;DHT22;4394;51.208;8.904;2022-08-30T09:19:38;21.30;99.90
8715;DHT22;4394;51.208;8.904;2022-08-30T09:22:31;21.40;99.90
8715;DHT22;4394;51.208;8.904;2022-08-30T09:25:22;21.40;99.90
8715;DHT22;4394;51.208;8.904;2022-08-30T09:28:13;21.60;99.90
8715;DHT22;4394;51.208;8.904;2022-08-30T09:31:03;21.70;99.90
8715;DHT22;4394;51.208;8.904;2022-08-30T09:33:58;21.70;99.90
8715;DHT22;4394;51.208;8.904;2022-08-30T09:36:51;21.80;99.90
8715;DHT22;4394;51.208;8.904;2022-08-30T09:39:41;22.00;99.90
8715;DHT22;4394;51.208;8.904;2022-08-30T09:42:31;22.20;99.90
8715;DHT22;4394;51.208;8.904;2022-08-30T09:45:26;22.30;99.90
8715;DHT22;4394;51.208;8.904;2022-08-30T09:48:19;22.50;99.90
8715;DHT22;4394;51.208;8.904;2022-08-30T09:54:15;22.60;99.90
8715;DHT22;4394;51.208;8.904;2022-08-30T09:57:06;22.80;99.90
8715;DHT22;4394;51.208;8.904;2022-08-30T10:00:00;22.90;99.90
8715;DHT22;4394;51.208;8.904;2022-08-30T10:02:54;22.90;99.90
8715;DHT22;4394;51.208;8.904;2022-08-30T10:05:48;23.00;99.90
8715;DHT22;4394;51.208;8.904;2022-08-30T10:08:43;22.90;99.90
8715;DHT22;4394;51.208;8.904;2022-08-30T10:11:36;23.10;99.90
8715;DHT22;4394;51.208;8.904;2022-08-30T10:14:39;23.20;99.90
8715;DHT22;4394;51.208;8.904;2022-08-30T10:17:37;23.20;99.90
8715;DHT22;4394;51.208;8.904;2022-08-30T10:20:30;23.30;99.90
8715;DHT22;4394;51.208;8.904;2022-08-30T10:23:20;23.40;99.90
8715;DHT22;4394;51.208;8.904;2022-08-30T10:26:10;23.40;99.90
8715;DHT22;4394;51.208;8.904;2022-08-30T10:29:07;23.60;99.90
8715;DHT22;4394;51.208;8.904;2022-08-30T10:31:58;23.60;99.90
8715;DHT22;4394;51.208;8.904;2022-08-30T10:34:48;23.70;99.90
8715;DHT22;4394;51.208;8.904;2022-08-30T10:37:39;23.70;99.90
8715;DHT22;4394;51.208;8.904;2022-08-30T10:40:28;23.70;99.90
8715;DHT22;4394;51.208;8.904;2022-08-30T10:43:40;23.70;99.90
8715;DHT22;4394;51.208;8.904;2022-08-30T10:46:32;23.90;99.90
8715;DHT22;4394;51.208;8.904;2022-08-30T10:49:22;24.00;99.90
8715;DHT22;4394;51.208;8.904;2022-08-30T10:52:14;24.10;99.90
8715;DHT22;4394;51.208;8.904;2022-08-30T10:55:06;24.10;99.90
8715;DHT22;4394;51.208;8.904;2022-08-30T10:57:57;24.20;99.90
8715;DHT22;4394;51.208;8.904;2022-08-30T11:00:49;24.30;99.90
8715;DHT22;4394;51.208;8.904;2022-08-30T11:03:47;24.40;99.90
8715;DHT22;4394;51.208;8.904;2022-08-30T11:06:41;24.50;99.90
8715;DHT22;4394;51.208;8.904;2022-08-30T11:12:36;24.70;99.90
8715;DHT22;4394;51.208;8.904;2022-08-30T11:15:30;24.80;99.90
8715;DHT22;4394;51.208;8.904;2022-08-30T11:18:19;24.90;99.90
8715;DHT22;4394;51.208;8.904;2022-08-30T11:21:18;25.00;99.90
8715;DHT22;4394;51.208;8.904;2022-08-30T11:24:09;25.00;99.30
8715;DHT22;4394;51.208;8.904;2022-08-30T11:27:03;25.10;99.90
8715;DHT22;4394;51.208;8.904;2022-08-30T11:29:56;25.20;99.90
8715;DHT22;4394;51.208;8.904;2022-08-30T11:35:49;24.90;98.70
8715;DHT22;4394;51.208;8.904;2022-08-30T11:39:03;24.80;98.70
8715;DHT22;4394;51.208;8.904;2022-08-30T11:48:03;24.80;99.70
8715;DHT22;4394;51.208;8.904;2022-08-30T11:50:53;24.80;98.30
8715;DHT22;4394;51.208;8.904;2022-08-30T11:53:43;24.90;99.60
8715;DHT22;4394;51.208;8.904;2022-08-30T11:56:41;25.20;99.90
8715;DHT22;4394;51.208;8.904;2022-08-30T11:59:35;25.50;99.90
8715;DHT22;4394;51.208;8.904;2022-08-30T12:02:45;25.60;99.90
8715;DHT22;4394;51.208;8.904;2022-08-30T12:05:51;25.50;98.30
8715;DHT22;4394;51.208;8.904;2022-08-30T12:08:49;25.40;99.90
8715;DHT22;4394;51.208;8.904;2022-08-30T12:11:55;25.50;99.90
8715;DHT22;4394;51.208;8.904;2022-08-30T12:14:48;25.60;99.90
8715;DHT22;4394;51.208;8.904;2022-08-30T12:17:50;25.70;99.90
8715;DHT22;4394;51.208;8.904;2022-08-30T12:21:02;25.70;99.90
8715;DHT22;4394;51.208;8.904;2022-08-30T12:24:03;25.70;99.20
8715;DHT22;4394;51.208;8.904;2022-08-30T12:26:56;25.60;98.50
8715;DHT22;4394;51.208;8.904;2022-08-30T12:29:49;25.60;99.20
8715;DHT22;4394;51.208;8.904;2022-08-30T12:32:41;25.60;99.50
8715;DHT22;4394;51.208;8.904;2022-08-30T12:35:29;25.50;97.70
8715;DHT22;4394;51.208;8.904;2022-08-30T12:38:19;25.30;98.30
8715;DHT22;4394;51.208;8.904;2022-08-30T12:41:16;25.30;97.70
8715;DHT22;4394;51.208;8.904;2022-08-30T12:44:08;25.30;98.10
8715;DHT22;4394;51.208;8.904;2022-08-30T12:46:59;25.30;97.70
8715;DHT22;4394;51.208;8.904;2022-08-30T12:49:55;25.30;97.50
8715;DHT22;4394;51.208;8.904;2022-08-30T12:52:44;25.50;98.10
8715;DHT22;4394;51.208;8.904;2022-08-30T12:55:34;25.50;97.30
8715;DHT22;4394;51.208;8.904;2022-08-30T12:58:32;25.70;97.90
8715;DHT22;4394;51.208;8.904;2022-08-30T13:01:29;25.90;97.40
8715;DHT22;4394;51.208;8.904;2022-08-30T13:04:21;26.00;98.10
8715;DHT22;4394;51.208;8.904;2022-08-30T13:07:10;26.20;97.60
8715;DHT22;4394;51.208;8.904;2022-08-30T13:10:04;26.40;98.30
8715;DHT22;4394;51.208;8.904;2022-08-30T13:12:58;26.50;97.40
8715;DHT22;4394;51.208;8.904;2022-08-30T13:15:47;26.50;95.80
8715;DHT22;4394;51.208;8.904;2022-08-30T13:18:37;26.40;96.90
8715;DHT22;4394;51.208;8.904;2022-08-30T13:21:29;26.40;96.50
8715;DHT22;4394;51.208;8.904;2022-08-30T13:24:18;26.40;95.50
8715;DHT22;4394;51.208;8.904;2022-08-30T13:27:11;26.20;94.30
8715;DHT22;4394;51.208;8.904;2022-08-30T13:30:06;26.30;95.50
8715;DHT22;4394;51.208;8.904;2022-08-30T13:32:59;26.40;94.90
8715;DHT22;4394;51.208;8.904;2022-08-30T13:35:49;26.50;95.00
8715;DHT22;4394;51.208;8.904;2022-08-30T13:38:40;26.40;94.30
8715;DHT22;4394;51.208;8.904;2022-08-30T13:41:29;26.30;93.20
8715;DHT22;4394;51.208;8.904;2022-08-30T13:44:29;26.20;93.30
8715;DHT22;4394;51.208;8.904;2022-08-30T13:47:27;26.20;93.40
8715;DHT22;4394;51.208;8.904;2022-08-30T13:50:23;26.20;91.20
8715;DHT22;4394;51.208;8.904;2022-08-30T13:53:14;26.30;93.70
8715;DHT22;4394;51.208;8.904;2022-08-30T13:56:26;26.40;92.60
8715;DHT22;4394;51.208;8.904;2022-08-30T13:59:20;26.40;93.30
8715;DHT22;4394;51.208;8.904;2022-08-30T14:02:09;26.50;95.00
8715;DHT22;4394;51.208;8.904;2022-08-30T14:05:04;26.50;94.30
8715;DHT22;4394;51.208;8.904;2022-08-30T14:08:08;26.50;92.40
8715;DHT22;4394;51.208;8.904;2022-08-30T14:11:26;26.40;93.00
8715;DHT22;4394;51.208;8.904;2022-08-30T14:14:14;26.40;92.10
8715;DHT22;4394;51.208;8.904;2022-08-30T14:17:24;26.40;91.90
8715;DHT22;4394;51.208;8.904;2022-08-30T14:20:16;26.30;91.80
8715;DHT22;4394;51.208;8.904;2022-08-30T14:23:04;26.30;92.10
8715;DHT22;4394;51.208;8.904;2022-08-30T14:25:59;26.50;92.90
8715;DHT22;4394;51.208;8.904;2022-08-30T14:28:49;26.70;90.60
8715;DHT22;4394;51.208;8.904;2022-08-30T14:31:38;26.90;90.70
8715;DHT22;4394;51.208;8.904;2022-08-30T14:34:26;27.10;92.20
8715;DHT22;4394;51.208;8.904;2022-08-30T14:37:14;27.30;91.30
8715;DHT22;4394;51.208;8.904;2022-08-30T14:40:05;27.40;91.00
8715;DHT22;4394;51.208;8.904;2022-08-30T14:42:53;27.40;90.90
8715;DHT22;4394;51.208;8.904;2022-08-30T14:45:43;27.20;92.60
8715;DHT22;4394;51.208;8.904;2022-08-30T14:48:31;27.20;90.60
8715;DHT22;4394;51.208;8.904;2022-08-30T14:51:20;27.20;90.60
8715;DHT22;4394;51.208;8.904;2022-08-30T14:54:09;27.30;90.30
8715;DHT22;4394;51.208;8.904;2022-08-30T14:56:57;27.40;92.30
8715;DHT22;4394;51.208;8.904;2022-08-30T14:59:45;27.50;91.90
8715;DHT22;4394;51.208;8.904;2022-08-30T15:02:34;27.60;91.00
8715;DHT22;4394;51.208;8.904;2022-08-30T15:05:22;27.70;90.70
8715;DHT22;4394;51.208;8.904;2022-08-30T15:08:11;27.60;90.60
8715;DHT22;4394;51.208;8.904;2022-08-30T15:10:59;27.50;90.40
8715;DHT22;4394;51.208;8.904;2022-08-30T15:13:47;27.40;88.40
8715;DHT22;4394;51.208;8.904;2022-08-30T15:16:38;27.30;89.30
8715;DHT22;4394;51.208;8.904;2022-08-30T15:19:28;27.30;90.00
8715;DHT22;4394;51.208;8.904;2022-08-30T15:22:16;27.40;87.50
8715;DHT22;4394;51.208;8.904;2022-08-30T15:25:05;27.60;89.60
8715;DHT22;4394;51.208;8.904;2022-08-30T15:27:55;27.60;87.80
8715;DHT22;4394;51.208;8.904;2022-08-30T15:30:42;27.70;87.50
8715;DHT22;4394;51.208;8.904;2022-08-30T15:33:30;27.80;89.60
8715;DHT22;4394;51.208;8.904;2022-08-30T15:36:20;27.80;88.80
8715;DHT22;4394;51.208;8.904;2022-08-30T15:39:08;27.90;88.20
8715;DHT22;4394;51.208;8.904;2022-08-30T15:41:56;27.90;86.00
8715;DHT22;4394;51.208;8.904;2022-08-30T15:44:49;27.90;87.70
8715;DHT22;4394;51.208;8.904;2022-08-30T15:47:37;27.90;88.00
8715;DHT22;4394;51.208;8.904;2022-08-30T15:50:26;27.90;87.60
8715;DHT22;4394;51.208;8.904;2022-08-30T15:53:16;28.00;88.40
8715;DHT22;4394;51.208;8.904;2022-08-30T15:56:05;28.10;87.80
8715;DHT22;4394;51.208;8.904;2022-08-30T15:58:53;28.00;85.40
8715;DHT22;4394;51.208;8.904;2022-08-30T16:01:42;27.90;83.60
8715;DHT22;4394;51.208;8.904;2022-08-30T16:04:33;27.80;86.40
8715;DHT22;4394;51.208;8.904;2022-08-30T16:07:21;27.80;86.10
8715;DHT22;4394;51.208;8.904;2022-08-30T16:10:12;27.80;84.60
8715;DHT22;4394;51.208;8.904;2022-08-30T16:13:00;27.70;84.80
8715;DHT22;4394;51.208;8.904;2022-08-30T16:15:48;27.70;85.70
8715;DHT22;4394;51.208;8.904;2022-08-30T16:18:36;27.70;85.00
8715;DHT22;4394;51.208;8.904;2022-08-30T16:21:25;27.80;84.40
8715;DHT22;4394;51.208;8.904;2022-08-30T16:24:14;27.80;83.80
8715;DHT22;4394;51.208;8.904;2022-08-30T16:27:09;27.80;82.50
8715;DHT22;4394;51.208;8.904;2022-08-30T16:29:57;27.80;83.60
8715;DHT22;4394;51.208;8.904;2022-08-30T16:32:45;27.70;82.40
8715;DHT22;4394;51.208;8.904;2022-08-30T16:35:34;27.60;83.10
8715;DHT22;4394;51.208;8.904;2022-08-30T16:38:24;27.60;82.80
8715;DHT22;4394;51.208;8.904;2022-08-30T16:41:13;27.60;81.90
8715;DHT22;4394;51.208;8.904;2022-08-30T16:44:08;27.50;81.60
8715;DHT22;4394;51.208;8.904;2022-08-30T16:46:57;27.50;81.70
8715;DHT22;4394;51.208;8.904;2022-08-30T16:49:45;27.30;82.50
8715;DHT22;4394;51.208;8.904;2022-08-30T16:52:33;27.20;82.60
8715;DHT22;4394;51.208;8.904;2022-08-30T16:55:21;27.10;81.80
8715;DHT22;4394;51.208;8.904;2022-08-30T16:58:09;27.10;83.60
8715;DHT22;4394;51.208;8.904;2022-08-30T17:01:05;27.00;82.00
8715;DHT22;4394;51.208;8.904;2022-08-30T17:03:55;27.00;80.70
8715;DHT22;4394;51.208;8.904;2022-08-30T17:06:43;26.90;80.90
8715;DHT22;4394;51.208;8.904;2022-08-30T17:09:32;26.90;81.10
8715;DHT22;4394;51.208;8.904;2022-08-30T17:12:21;26.80;80.40
8715;DHT22;4394;51.208;8.904;2022-08-30T17:15:10;26.60;80.20
8715;DHT22;4394;51.208;8.904;2022-08-30T17:17:59;26.40;80.10
8715;DHT22;4394;51.208;8.904;2022-08-30T17:20:47;26.40;80.30
8715;DHT22;4394;51.208;8.904;2022-08-30T17:23:35;26.20;81.00
8715;DHT22;4394;51.208;8.904;2022-08-30T17:26:24;26.20;81.60
8715;DHT22;4394;51.208;8.904;2022-08-30T17:29:12;26.00;81.50
8715;DHT22;4394;51.208;8.904;2022-08-30T17:32:01;25.80;81.70
8715;DHT22;4394;51.208;8.904;2022-08-30T17:34:51;25.70;82.30
8715;DHT22;4394;51.208;8.904;2022-08-30T17:37:39;25.50;84.70
8715;DHT22;4394;51.208;8.904;2022-08-30T17:40:28;25.40;84.40
8715;DHT22;4394;51.208;8.904;2022-08-30T17:43:16;25.30;87.20
8715;DHT22;4394;51.208;8.904;2022-08-30T17:46:04;25.10;86.00
8715;DHT22;4394;51.208;8.904;2022-08-30T17:48:52;25.10;87.10
8715;DHT22;4394;51.208;8.904;2022-08-30T17:51:49;25.00;87.30
8715;DHT22;4394;51.208;8.904;2022-08-30T17:54:42;24.80;90.00
8715;DHT22;4394;51.208;8.904;2022-08-30T17:57:30;24.70;90.10
8715;DHT22;4394;51.208;8.904;2022-08-30T18:00:19;24.60;88.10
8715;DHT22;4394;51.208;8.904;2022-08-30T18:03:07;24.50;88.90
8715;DHT22;4394;51.208;8.904;2022-08-30T18:05:55;24.40;89.50
8715;DHT22;4394;51.208;8.904;2022-08-30T18:08:46;24.20;88.20
8715;DHT22;4394;51.208;8.904;2022-08-30T18:11:34;24.10;90.00
8715;DHT22;4394;51.208;8.904;2022-08-30T18:14:23;24.00;90.50
8715;DHT22;4394;51.208;8.904;2022-08-30T18:17:11;24.00;90.10
8715;DHT22;4394;51.208;8.904;2022-08-30T18:19:59;23.80;90.00
8715;DHT22;4394;51.208;8.904;2022-08-30T18:22:48;23.80;90.50
8715;DHT22;4394;51.208;8.904;2022-08-30T18:25:37;23.70;91.00
8715;DHT22;4394;51.208;8.904;2022-08-30T18:28:26;23.60;90.60
8715;DHT22;4394;51.208;8.904;2022-08-30T18:31:14;23.50;91.20
8715;DHT22;4394;51.208;8.904;2022-08-30T18:34:03;23.50;90.90
8715;DHT22;4394;51.208;8.904;2022-08-30T18:36:57;23.30;91.10
8715;DHT22;4394;51.208;8.904;2022-08-30T18:39:46;23.30;91.10
8715;DHT22;4394;51.208;8.904;2022-08-30T18:42:37;23.10;91.00
8715;DHT22;4394;51.208;8.904;2022-08-30T18:45:26;23.00;91.80
8715;DHT22;4394;51.208;8.904;2022-08-30T18:48:16;23.00;92.10